sensor_id;sensor_type;location;lat;lon;timestamp;P1;durP1;ratioP1;P2;durP2;ratioP2
42754;SDS011;28407;51.830;5.684;2023-11-21T00:00:52;10.80;;;7.85;;
42754;SDS011;28407;51.830;5.684;2023-11-21T00:02:53;9.27;;;7.28;;
42754;SDS011;28407;51.830;5.684;2023-11-21T00:04:53;8.77;;;7.32;;
42754;SDS011;28407;51.830;5.684;2023-11-21T00:06:54;11.13;;;6.70;;
42754;SDS011;28407;51.830;5.684;2023-11-21T00:08:57;9.07;;;6.05;;
42754;SDS011;28407;51.830;5.684;2023-11-21T00:10:58;9.13;;;6.05;;
42754;SDS011;28407;51.830;5.684;2023-11-21T00:13:00;7.70;;;6.50;;
42754;SDS011;28407;51.830;5.684;2023-11-21T00:15:03;10.25;;;6.30;;
42754;SDS011;28407;51.830;5.684;2023-11-21T00:17:05;8.57;;;6.05;;
42754;SDS011;28407;51.830;5.684;2023-11-21T00:19:06;8.30;;;6.38;;
42754;SDS011;28407;51.830;5.684;2023-11-21T00:21:07;8.60;;;6.07;;
42754;SDS011;28407;51.830;5.684;2023-11-21T00:23:07;9.20;;;6.97;;
42754;SDS011;28407;51.830;5.684;2023-11-21T00:27:10;7.78;;;5.72;;
42754;SDS011;28407;51.830;5.684;2023-11-21T00:29:11;8.82;;;7.25;;
42754;SDS011;28407;51.830;5.684;2023-11-21T00:31:12;8.13;;;6.07;;
42754;SDS011;28407;51.830;5.684;2023-11-21T00:33:13;9.07;;;7.22;;
42754;SDS011;28407;51.830;5.684;2023-11-21T00:35:14;9.57;;;6.78;;
42754;SDS011;28407;51.830;5.684;2023-11-21T00:37:16;8.65;;;6.25;;
42754;SDS011;28407;51.830;5.684;2023-11-21T00:39:16;9.90;;;6.55;;
42754;SDS011;28407;51.830;5.684;2023-11-21T00:41:17;9.02;;;6.45;;
42754;SDS011;28407;51.830;5.684;2023-11-21T00:43:17;9.32;;;7.05;;
42754;SDS011;28407;51.830;5.684;2023-11-21T00:45:18;8.50;;;6.38;;
42754;SDS011;28407;51.830;5.684;2023-11-21T00:47:19;7.72;;;6.00;;
42754;SDS011;28407;51.830;5.684;2023-11-21T00:49:19;7.35;;;6.18;;
42754;SDS011;28407;51.830;5.684;2023-11-21T00:51:21;10.45;;;7.35;;
42754;SDS011;28407;51.830;5.684;2023-11-21T00:53:22;8.32;;;6.43;;
42754;SDS011;28407;51.830;5.684;2023-11-21T00:55:23;13.75;;;8.55;;
42754;SDS011;28407;51.830;5.684;2023-11-21T00:57:25;11.40;;;7.63;;
42754;SDS011;28407;51.830;5.684;2023-11-21T00:59:26;11.00;;;6.70;;
42754;SDS011;28407;51.830;5.684;2023-11-21T01:01:27;11.23;;;7.65;;
42754;SDS011;28407;51.830;5.684;2023-11-21T01:03:27;8.40;;;6.70;;
42754;SDS011;28407;51.830;5.684;2023-11-21T01:05:28;8.73;;;7.35;;
42754;SDS011;28407;51.830;5.684;2023-11-21T01:07:29;8.40;;;6.65;;
42754;SDS011;28407;51.830;5.684;2023-11-21T01:09:30;9.32;;;7.43;;
42754;SDS011;28407;51.830;5.684;2023-11-21T01:11:31;8.57;;;6.38;;
42754;SDS011;28407;51.830;5.684;2023-11-21T01:13:33;9.98;;;8.13;;
42754;SDS011;28407;51.830;5.684;2023-11-21T01:15:34;10.73;;;7.88;;
42754;SDS011;28407;51.830;5.684;2023-11-21T01:17:34;9.45;;;7.35;;
42754;SDS011;28407;51.830;5.684;2023-11-21T01:19:35;9.95;;;7.63;;
42754;SDS011;28407;51.830;5.684;2023-11-21T01:21:36;9.57;;;7.22;;
42754;SDS011;28407;51.830;5.684;2023-11-21T01:23:37;10.18;;;7.40;;
42754;SDS011;28407;51.830;5.684;2023-11-21T01:25:37;9.70;;;7.93;;
42754;SDS011;28407;51.830;5.684;2023-11-21T01:27:38;10.98;;;7.78;;
42754;SDS011;28407;51.830;5.684;2023-11-21T01:29:39;9.35;;;7.13;;
42754;SDS011;28407;51.830;5.684;2023-11-21T01:31:39;10.52;;;7.97;;
42754;SDS011;28407;51.830;5.684;2023-11-21T01:33:40;10.40;;;7.93;;
42754;SDS011;28407;51.830;5.684;2023-11-21T01:35:41;8.52;;;7.50;;
42754;SDS011;28407;51.830;5.684;2023-11-21T01:37:42;10.57;;;8.20;;
42754;SDS011;28407;51.830;5.684;2023-11-21T01:39:43;9.35;;;7.65;;
42754;SDS011;28407;51.830;5.684;2023-11-21T01:41:44;9.83;;;7.63;;
42754;SDS011;28407;51.830;5.684;2023-11-21T01:43:45;12.18;;;8.30;;
42754;SDS011;28407;51.830;5.684;2023-11-21T01:45:45;9.77;;;7.10;;
42754;SDS011;28407;51.830;5.684;2023-11-21T01:47:46;10.07;;;7.75;;
42754;SDS011;28407;51.830;5.684;2023-11-21T01:49:47;9.05;;;6.85;;
42754;SDS011;28407;51.830;5.684;2023-11-21T01:51:48;12.80;;;8.40;;
42754;SDS011;28407;51.830;5.684;2023-11-21T01:53:51;16.83;;;9.30;;
42754;SDS011;28407;51.830;5.684;2023-11-21T01:55:51;13.98;;;7.65;;
42754;SDS011;28407;51.830;5.684;2023-11-21T01:57:54;13.95;;;8.85;;
42754;SDS011;28407;51.830;5.684;2023-11-21T01:59:56;16.48;;;9.20;;
42754;SDS011;28407;51.830;5.684;2023-11-21T02:01:59;14.98;;;9.00;;
42754;SDS011;28407;51.830;5.684;2023-11-21T02:04:00;12.77;;;8.93;;
42754;SDS011;28407;51.830;5.684;2023-11-21T02:06:02;15.55;;;9.25;;
42754;SDS011;28407;51.830;5.684;2023-11-21T02:08:03;14.07;;;9.07;;
42754;SDS011;28407;51.830;5.684;2023-11-21T02:10:04;12.50;;;8.60;;
42754;SDS011;28407;51.830;5.684;2023-11-21T02:12:08;11.15;;;9.05;;
42754;SDS011;28407;51.830;5.684;2023-11-21T02:14:10;13.60;;;9.60;;
42754;SDS011;28407;51.830;5.684;2023-11-21T02:16:12;12.30;;;9.60;;
42754;SDS011;28407;51.830;5.684;2023-11-21T02:18:13;12.07;;;8.63;;
42754;SDS011;28407;51.830;5.684;2023-11-21T02:20:15;11.73;;;9.65;;
42754;SDS011;28407;51.830;5.684;2023-11-21T02:22:17;11.00;;;9.00;;
42754;SDS011;28407;51.830;5.684;2023-11-21T02:24:22;12.23;;;9.13;;
42754;SDS011;28407;51.830;5.684;2023-11-21T02:26:24;10.77;;;8.57;;
42754;SDS011;28407;51.830;5.684;2023-11-21T02:30:26;10.13;;;7.72;;
42754;SDS011;28407;51.830;5.684;2023-11-21T02:32:28;10.95;;;8.00;;
42754;SDS011;28407;51.830;5.684;2023-11-21T02:34:32;9.50;;;8.02;;
42754;SDS011;28407;51.830;5.684;2023-11-21T02:36:33;10.85;;;8.77;;
42754;SDS011;28407;51.830;5.684;2023-11-21T02:38:33;9.57;;;7.55;;
42754;SDS011;28407;51.830;5.684;2023-11-21T02:40:35;11.85;;;8.68;;
42754;SDS011;28407;51.830;5.684;2023-11-21T02:42:35;10.27;;;7.88;;
42754;SDS011;28407;51.830;5.684;2023-11-21T02:44:36;9.05;;;7.57;;
42754;SDS011;28407;51.830;5.684;2023-11-21T02:46:37;10.18;;;8.20;;
42754;SDS011;28407;51.830;5.684;2023-11-21T02:48:40;12.23;;;9.73;;
42754;SDS011;28407;51.830;5.684;2023-11-21T02:50:40;10.98;;;8.48;;
42754;SDS011;28407;51.830;5.684;2023-11-21T02:52:43;10.20;;;7.65;;
42754;SDS011;28407;51.830;5.684;2023-11-21T02:54:44;10.52;;;8.73;;
42754;SDS011;28407;51.830;5.684;2023-11-21T02:56:45;10.80;;;6.95;;
42754;SDS011;28407;51.830;5.684;2023-11-21T02:58:46;9.98;;;8.15;;
42754;SDS011;28407;51.830;5.684;2023-11-21T03:00:46;9.88;;;7.88;;
42754;SDS011;28407;51.830;5.684;2023-11-21T03:02:47;10.77;;;8.38;;
42754;SDS011;28407;51.830;5.684;2023-11-21T03:04:47;9.68;;;7.60;;
42754;SDS011;28407;51.830;5.684;2023-11-21T03:06:49;9.30;;;7.20;;
42754;SDS011;28407;51.830;5.684;2023-11-21T03:08:49;9.40;;;8.18;;
42754;SDS011;28407;51.830;5.684;2023-11-21T03:10:50;10.15;;;7.50;;
42754;SDS011;28407;51.830;5.684;2023-11-21T03:12:52;10.43;;;8.45;;
42754;SDS011;28407;51.830;5.684;2023-11-21T03:14:52;10.05;;;7.75;;
42754;SDS011;28407;51.830;5.684;2023-11-21T03:16:55;9.43;;;7.70;;
42754;SDS011;28407;51.830;5.684;2023-11-21T03:18:56;9.55;;;7.53;;
42754;SDS011;28407;51.830;5.684;2023-11-21T03:20:56;11.77;;;7.28;;
42754;SDS011;28407;51.830;5.684;2023-11-21T03:22:57;10.75;;;8.18;;
42754;SDS011;28407;51.830;5.684;2023-11-21T03:25:00;11.43;;;8.25;;
42754;SDS011;28407;51.830;5.684;2023-11-21T03:27:01;12.93;;;10.40;;
42754;SDS011;28407;51.830;5.684;2023-11-21T03:29:01;13.35;;;10.65;;
42754;SDS011;28407;51.830;5.684;2023-11-21T03:31:02;9.50;;;7.60;;
42754;SDS011;28407;51.830;5.684;2023-11-21T03:33:04;12.68;;;9.23;;
42754;SDS011;28407;51.830;5.684;2023-11-21T03:35:04;11.98;;;8.43;;
42754;SDS011;28407;51.830;5.684;2023-11-21T03:37:06;11.82;;;8.63;;
42754;SDS011;28407;51.830;5.684;2023-11-21T03:39:07;10.73;;;8.68;;
42754;SDS011;28407;51.830;5.684;2023-11-21T03:41:07;9.90;;;7.63;;
42754;SDS011;28407;51.830;5.684;2023-11-21T03:43:11;12.25;;;8.85;;
42754;SDS011;28407;51.830;5.684;2023-11-21T03:45:13;10.77;;;8.57;;
42754;SDS011;28407;51.830;5.684;2023-11-21T03:47:14;12.18;;;8.32;;
42754;SDS011;28407;51.830;5.684;2023-11-21T03:49:15;10.00;;;8.00;;
42754;SDS011;28407;51.830;5.684;2023-11-21T03:51:16;11.85;;;7.72;;
42754;SDS011;28407;51.830;5.684;2023-11-21T03:53:17;11.68;;;8.30;;
42754;SDS011;28407;51.830;5.684;2023-11-21T03:55:17;11.20;;;8.38;;
42754;SDS011;28407;51.830;5.684;2023-11-21T03:57:18;10.93;;;7.55;;
42754;SDS011;28407;51.830;5.684;2023-11-21T03:59:19;11.98;;;9.68;;
42754;SDS011;28407;51.830;5.684;2023-11-21T04:01:22;13.38;;;10.23;;
42754;SDS011;28407;51.830;5.684;2023-11-21T04:03:24;10.25;;;8.23;;
42754;SDS011;28407;51.830;5.684;2023-11-21T04:05:25;10.50;;;8.02;;
42754;SDS011;28407;51.830;5.684;2023-11-21T04:07:25;10.43;;;8.25;;
42754;SDS011;28407;51.830;5.684;2023-11-21T04:09:27;11.63;;;8.07;;
42754;SDS011;28407;51.830;5.684;2023-11-21T04:11:28;11.37;;;7.20;;
42754;SDS011;28407;51.830;5.684;2023-11-21T04:13:30;11.35;;;8.27;;
42754;SDS011;28407;51.830;5.684;2023-11-21T04:15:30;10.48;;;8.70;;
42754;SDS011;28407;51.830;5.684;2023-11-21T04:17:31;11.70;;;8.32;;
42754;SDS011;28407;51.830;5.684;2023-11-21T04:19:32;10.35;;;8.13;;
42754;SDS011;28407;51.830;5.684;2023-11-21T04:21:32;11.65;;;9.13;;
42754;SDS011;28407;51.830;5.684;2023-11-21T04:23:33;14.95;;;10.75;;
42754;SDS011;28407;51.830;5.684;2023-11-21T04:25:34;12.45;;;8.75;;
42754;SDS011;28407;51.830;5.684;2023-11-21T04:27:35;12.63;;;8.80;;
42754;SDS011;28407;51.830;5.684;2023-11-21T04:29:36;12.55;;;9.07;;
42754;SDS011;28407;51.830;5.684;2023-11-21T04:31:36;14.13;;;9.60;;
42754;SDS011;28407;51.830;5.684;2023-11-21T04:33:37;11.88;;;10.25;;
42754;SDS011;28407;51.830;5.684;2023-11-21T04:35:38;13.93;;;8.73;;
42754;SDS011;28407;51.830;5.684;2023-11-21T04:37:38;13.32;;;10.07;;
42754;SDS011;28407;51.830;5.684;2023-11-21T04:39:40;11.63;;;8.23;;
42754;SDS011;28407;51.830;5.684;2023-11-21T04:41:40;12.23;;;7.75;;
42754;SDS011;28407;51.830;5.684;2023-11-21T04:43:41;13.13;;;7.90;;
42754;SDS011;28407;51.830;5.684;2023-11-21T04:45:42;11.27;;;8.90;;
42754;SDS011;28407;51.830;5.684;2023-11-21T04:47:43;13.23;;;8.43;;
42754;SDS011;28407;51.830;5.684;2023-11-21T04:49:43;11.48;;;8.23;;
42754;SDS011;28407;51.830;5.684;2023-11-21T04:51:47;13.15;;;8.88;;
42754;SDS011;28407;51.830;5.684;2023-11-21T04:53:47;12.98;;;10.23;;
42754;SDS011;28407;51.830;5.684;2023-11-21T04:55:48;11.75;;;7.93;;
42754;SDS011;28407;51.830;5.684;2023-11-21T04:57:49;12.52;;;8.68;;
42754;SDS011;28407;51.830;5.684;2023-11-21T04:59:49;14.35;;;9.75;;
42754;SDS011;28407;51.830;5.684;2023-11-21T05:01:50;11.15;;;8.98;;
42754;SDS011;28407;51.830;5.684;2023-11-21T05:03:51;9.48;;;7.88;;
42754;SDS011;28407;51.830;5.684;2023-11-21T05:05:52;12.43;;;9.13;;
42754;SDS011;28407;51.830;5.684;2023-11-21T05:07:53;11.77;;;9.07;;
42754;SDS011;28407;51.830;5.684;2023-11-21T05:09:54;12.63;;;9.15;;
42754;SDS011;28407;51.830;5.684;2023-11-21T05:11:55;11.48;;;8.70;;
42754;SDS011;28407;51.830;5.684;2023-11-21T05:13:55;11.27;;;9.13;;
42754;SDS011;28407;51.830;5.684;2023-11-21T05:15:58;10.63;;;8.25;;
42754;SDS011;28407;51.830;5.684;2023-11-21T05:17:59;11.77;;;8.63;;
42754;SDS011;28407;51.830;5.684;2023-11-21T05:20:00;10.80;;;8.30;;
42754;SDS011;28407;51.830;5.684;2023-11-21T05:22:08;9.85;;;8.13;;
42754;SDS011;28407;51.830;5.684;2023-11-21T05:24:08;9.45;;;8.13;;
42754;SDS011;28407;51.830;5.684;2023-11-21T05:26:09;12.90;;;8.30;;
42754;SDS011;28407;51.830;5.684;2023-11-21T05:28:10;11.98;;;8.50;;
42754;SDS011;28407;51.830;5.684;2023-11-21T05:30:11;9.93;;;8.13;;
42754;SDS011;28407;51.830;5.684;2023-11-21T05:32:12;10.63;;;8.20;;
42754;SDS011;28407;51.830;5.684;2023-11-21T05:34:13;11.38;;;9.15;;
42754;SDS011;28407;51.830;5.684;2023-11-21T05:36:17;11.18;;;7.97;;
42754;SDS011;28407;51.830;5.684;2023-11-21T05:38:18;10.65;;;7.60;;
42754;SDS011;28407;51.830;5.684;2023-11-21T05:40:21;11.65;;;9.35;;
42754;SDS011;28407;51.830;5.684;2023-11-21T05:42:22;10.13;;;8.20;;
42754;SDS011;28407;51.830;5.684;2023-11-21T05:44:23;10.27;;;8.35;;
42754;SDS011;28407;51.830;5.684;2023-11-21T05:46:25;11.20;;;8.60;;
42754;SDS011;28407;51.830;5.684;2023-11-21T05:48:25;9.98;;;8.25;;
42754;SDS011;28407;51.830;5.684;2023-11-21T05:50:26;10.05;;;8.27;;
42754;SDS011;28407;51.830;5.684;2023-11-21T05:52:28;8.63;;;7.55;;
42754;SDS011;28407;51.830;5.684;2023-11-21T05:54:29;9.55;;;8.00;;
42754;SDS011;28407;51.830;5.684;2023-11-21T05:56:29;10.93;;;8.52;;
42754;SDS011;28407;51.830;5.684;2023-11-21T05:58:30;9.13;;;8.10;;
42754;SDS011;28407;51.830;5.684;2023-11-21T06:00:31;9.90;;;7.65;;
42754;SDS011;28407;51.830;5.684;2023-11-21T06:02:32;11.27;;;7.57;;
42754;SDS011;28407;51.830;5.684;2023-11-21T06:04:33;9.05;;;7.93;;
42754;SDS011;28407;51.830;5.684;2023-11-21T06:06:33;9.57;;;7.80;;
42754;SDS011;28407;51.830;5.684;2023-11-21T06:08:34;10.80;;;8.25;;
42754;SDS011;28407;51.830;5.684;2023-11-21T06:10:35;9.48;;;7.22;;
42754;SDS011;28407;51.830;5.684;2023-11-21T06:12:35;10.30;;;8.50;;
42754;SDS011;28407;51.830;5.684;2023-11-21T06:14:36;9.75;;;7.93;;
42754;SDS011;28407;51.830;5.684;2023-11-21T06:16:37;10.80;;;8.00;;
42754;SDS011;28407;51.830;5.684;2023-11-21T06:18:38;9.10;;;7.82;;
42754;SDS011;28407;51.830;5.684;2023-11-21T06:20:38;8.45;;;7.43;;
42754;SDS011;28407;51.830;5.684;2023-11-21T06:22:40;10.25;;;8.45;;
42754;SDS011;28407;51.830;5.684;2023-11-21T06:24:43;10.15;;;8.23;;
42754;SDS011;28407;51.830;5.684;2023-11-21T06:26:44;10.77;;;7.80;;
42754;SDS011;28407;51.830;5.684;2023-11-21T06:28:45;9.73;;;8.73;;
42754;SDS011;28407;51.830;5.684;2023-11-21T06:30:45;9.50;;;7.95;;
42754;SDS011;28407;51.830;5.684;2023-11-21T06:32:46;8.88;;;7.35;;
42754;SDS011;28407;51.830;5.684;2023-11-21T06:34:47;10.53;;;8.17;;
42754;SDS011;28407;51.830;5.684;2023-11-21T06:36:49;14.25;;;8.88;;
42754;SDS011;28407;51.830;5.684;2023-11-21T06:38:49;8.48;;;7.45;;
42754;SDS011;28407;51.830;5.684;2023-11-21T06:40:50;9.60;;;8.18;;
42754;SDS011;28407;51.830;5.684;2023-11-21T06:42:51;8.82;;;7.72;;
42754;SDS011;28407;51.830;5.684;2023-11-21T06:44:52;8.98;;;8.02;;
42754;SDS011;28407;51.830;5.684;2023-11-21T06:46:53;9.52;;;7.35;;
42754;SDS011;28407;51.830;5.684;2023-11-21T06:48:54;9.23;;;7.90;;
42754;SDS011;28407;51.830;5.684;2023-11-21T06:50:56;9.07;;;7.50;;
42754;SDS011;28407;51.830;5.684;2023-11-21T06:52:56;10.95;;;7.13;;
42754;SDS011;28407;51.830;5.684;2023-11-21T06:54:57;9.57;;;7.97;;
42754;SDS011;28407;51.830;5.684;2023-11-21T06:56:57;9.68;;;8.02;;
42754;SDS011;28407;51.830;5.684;2023-11-21T06:58:58;8.10;;;7.28;;
42754;SDS011;28407;51.830;5.684;2023-11-21T07:00:59;10.77;;;8.23;;
42754;SDS011;28407;51.830;5.684;2023-11-21T07:03:00;9.07;;;7.43;;
42754;SDS011;28407;51.830;5.684;2023-11-21T07:05:00;9.93;;;7.95;;
42754;SDS011;28407;51.830;5.684;2023-11-21T07:07:02;8.00;;;7.13;;
42754;SDS011;28407;51.830;5.684;2023-11-21T07:09:03;8.48;;;6.85;;
42754;SDS011;28407;51.830;5.684;2023-11-21T07:11:04;9.63;;;7.82;;
42754;SDS011;28407;51.830;5.684;2023-11-21T07:13:04;7.85;;;6.43;;
42754;SDS011;28407;51.830;5.684;2023-11-21T07:15:05;10.77;;;7.35;;
42754;SDS011;28407;51.830;5.684;2023-11-21T07:17:09;7.93;;;6.88;;
42754;SDS011;28407;51.830;5.684;2023-11-21T07:19:09;9.95;;;7.57;;
42754;SDS011;28407;51.830;5.684;2023-11-21T07:23:12;7.78;;;6.95;;
42754;SDS011;28407;51.830;5.684;2023-11-21T07:25:13;10.32;;;8.45;;
42754;SDS011;28407;51.830;5.684;2023-11-21T07:27:13;7.47;;;6.22;;
42754;SDS011;28407;51.830;5.684;2023-11-21T07:29:14;8.23;;;7.07;;
42754;SDS011;28407;51.830;5.684;2023-11-21T07:31:15;8.52;;;6.78;;
42754;SDS011;28407;51.830;5.684;2023-11-21T07:33:15;8.18;;;6.60;;
42754;SDS011;28407;51.830;5.684;2023-11-21T07:35:17;8.70;;;7.70;;
42754;SDS011;28407;51.830;5.684;2023-11-21T07:37:18;8.45;;;6.93;;
42754;SDS011;28407;51.830;5.684;2023-11-21T07:39:19;8.18;;;6.45;;
42754;SDS011;28407;51.830;5.684;2023-11-21T07:41:21;7.75;;;6.50;;
42754;SDS011;28407;51.830;5.684;2023-11-21T07:43:22;8.20;;;6.28;;
42754;SDS011;28407;51.830;5.684;2023-11-21T07:45:24;8.40;;;7.30;;
42754;SDS011;28407;51.830;5.684;2023-11-21T07:47:27;8.00;;;6.50;;
42754;SDS011;28407;51.830;5.684;2023-11-21T07:49:28;8.88;;;7.85;;
42754;SDS011;28407;51.830;5.684;2023-11-21T07:51:28;7.43;;;6.30;;
42754;SDS011;28407;51.830;5.684;2023-11-21T07:53:29;7.20;;;5.63;;
42754;SDS011;28407;51.830;5.684;2023-11-21T07:55:30;10.15;;;6.55;;
42754;SDS011;28407;51.830;5.684;2023-11-21T07:57:32;8.63;;;7.03;;
42754;SDS011;28407;51.830;5.684;2023-11-21T07:59:33;11.25;;;7.35;;
42754;SDS011;28407;51.830;5.684;2023-11-21T08:01:33;10.48;;;7.20;;
42754;SDS011;28407;51.830;5.684;2023-11-21T08:03:34;9.38;;;7.70;;
42754;SDS011;28407;51.830;5.684;2023-11-21T08:05:35;7.80;;;7.05;;
42754;SDS011;28407;51.830;5.684;2023-11-21T08:07:35;8.70;;;7.80;;
42754;SDS011;28407;51.830;5.684;2023-11-21T08:09:36;10.57;;;7.47;;
42754;SDS011;28407;51.830;5.684;2023-11-21T08:11:37;7.45;;;6.28;;
42754;SDS011;28407;51.830;5.684;2023-11-21T08:13:38;9.00;;;7.68;;
42754;SDS011;28407;51.830;5.684;2023-11-21T08:15:39;9.52;;;6.97;;
42754;SDS011;28407;51.830;5.684;2023-11-21T08:17:40;9.32;;;8.27;;
42754;SDS011;28407;51.830;5.684;2023-11-21T08:19:41;10.68;;;8.10;;
42754;SDS011;28407;51.830;5.684;2023-11-21T08:21:41;9.20;;;7.30;;
42754;SDS011;28407;51.830;5.684;2023-11-21T08:23:42;11.13;;;9.57;;
42754;SDS011;28407;51.830;5.684;2023-11-21T08:25:43;10.65;;;7.47;;
42754;SDS011;28407;51.830;5.684;2023-11-21T08:27:44;9.70;;;7.73;;
42754;SDS011;28407;51.830;5.684;2023-11-21T08:29:45;8.93;;;7.90;;
42754;SDS011;28407;51.830;5.684;2023-11-21T08:31:45;10.15;;;7.57;;
42754;SDS011;28407;51.830;5.684;2023-11-21T08:33:46;8.98;;;7.10;;
42754;SDS011;28407;51.830;5.684;2023-11-21T08:35:47;9.38;;;8.18;;
42754;SDS011;28407;51.830;5.684;2023-11-21T08:37:48;8.50;;;6.90;;
42754;SDS011;28407;51.830;5.684;2023-11-21T08:39:52;10.82;;;7.85;;
42754;SDS011;28407;51.830;5.684;2023-11-21T08:41:53;10.93;;;7.90;;
42754;SDS011;28407;51.830;5.684;2023-11-21T08:43:54;9.48;;;7.05;;
42754;SDS011;28407;51.830;5.684;2023-11-21T08:45:55;10.83;;;8.13;;
42754;SDS011;28407;51.830;5.684;2023-11-21T08:47:56;8.93;;;7.40;;
42754;SDS011;28407;51.830;5.684;2023-11-21T08:49:56;9.18;;;7.30;;
42754;SDS011;28407;51.830;5.684;2023-11-21T08:51:58;9.35;;;7.28;;
42754;SDS011;28407;51.830;5.684;2023-11-21T08:53:59;14.93;;;8.88;;
42754;SDS011;28407;51.830;5.684;2023-11-21T08:56:04;9.00;;;7.10;;
42754;SDS011;28407;51.830;5.684;2023-11-21T08:58:05;10.93;;;9.25;;
42754;SDS011;28407;51.830;5.684;2023-11-21T09:00:07;11.05;;;8.60;;
42754;SDS011;28407;51.830;5.684;2023-11-21T09:02:11;9.63;;;7.75;;
42754;SDS011;28407;51.830;5.684;2023-11-21T09:04:12;10.23;;;7.55;;
42754;SDS011;28407;51.830;5.684;2023-11-21T09:06:13;9.85;;;8.13;;
42754;SDS011;28407;51.830;5.684;2023-11-21T09:08:14;13.33;;;9.63;;
42754;SDS011;28407;51.830;5.684;2023-11-21T09:10:14;11.00;;;8.68;;
42754;SDS011;28407;51.830;5.684;2023-11-21T09:12:15;11.52;;;9.40;;
42754;SDS011;28407;51.830;5.684;2023-11-21T09:14:22;11.18;;;9.35;;
42754;SDS011;28407;51.830;5.684;2023-11-21T09:16:23;12.05;;;10.18;;
42754;SDS011;28407;51.830;5.684;2023-11-21T09:18:23;14.32;;;10.85;;
42754;SDS011;28407;51.830;5.684;2023-11-21T09:20:24;12.00;;;10.40;;
42754;SDS011;28407;51.830;5.684;2023-11-21T09:22:24;13.30;;;10.32;;
42754;SDS011;28407;51.830;5.684;2023-11-21T09:24:25;12.18;;;9.05;;
42754;SDS011;28407;51.830;5.684;2023-11-21T09:26:26;11.10;;;8.85;;
42754;SDS011;28407;51.830;5.684;2023-11-21T09:28:27;11.55;;;9.00;;
42754;SDS011;28407;51.830;5.684;2023-11-21T09:30:27;9.70;;;8.07;;
42754;SDS011;28407;51.830;5.684;2023-11-21T09:32:28;16.13;;;8.85;;
42754;SDS011;28407;51.830;5.684;2023-11-21T09:34:29;16.38;;;9.77;;
42754;SDS011;28407;51.830;5.684;2023-11-21T09:38:33;9.88;;;7.10;;
42754;SDS011;28407;51.830;5.684;2023-11-21T09:40:35;11.05;;;8.05;;
42754;SDS011;28407;51.830;5.684;2023-11-21T09:42:40;9.38;;;8.38;;
42754;SDS011;28407;51.830;5.684;2023-11-21T09:47:14;11.57;;;9.23;;
42754;SDS011;28407;51.830;5.684;2023-11-21T09:49:17;13.43;;;8.65;;
42754;SDS011;28407;51.830;5.684;2023-11-21T09:51:22;12.05;;;9.93;;
42754;SDS011;28407;51.830;5.684;2023-11-21T09:53:27;14.23;;;10.23;;
42754;SDS011;28407;51.830;5.684;2023-11-21T09:55:32;14.32;;;9.82;;
42754;SDS011;28407;51.830;5.684;2023-11-21T09:57:36;15.40;;;9.52;;
42754;SDS011;28407;51.830;5.684;2023-11-21T09:59:37;12.00;;;8.10;;
42754;SDS011;28407;51.830;5.684;2023-11-21T10:01:38;12.97;;;8.87;;
42754;SDS011;28407;51.830;5.684;2023-11-21T10:03:40;13.50;;;9.50;;
42754;SDS011;28407;51.830;5.684;2023-11-21T10:05:42;12.97;;;9.73;;
42754;SDS011;28407;51.830;5.684;2023-11-21T10:07:45;11.27;;;8.80;;
42754;SDS011;28407;51.830;5.684;2023-11-21T10:09:47;14.43;;;10.03;;
42754;SDS011;28407;51.830;5.684;2023-11-21T10:11:50;14.30;;;9.23;;
42754;SDS011;28407;51.830;5.684;2023-11-21T10:13:54;14.40;;;10.10;;
42754;SDS011;28407;51.830;5.684;2023-11-21T10:15:57;14.95;;;10.27;;
42754;SDS011;28407;51.830;5.684;2023-11-21T10:18:00;12.95;;;9.80;;
42754;SDS011;28407;51.830;5.684;2023-11-21T10:20:06;12.88;;;9.32;;
42754;SDS011;28407;51.830;5.684;2023-11-21T10:22:11;12.48;;;9.52;;
42754;SDS011;28407;51.830;5.684;2023-11-21T10:24:12;13.00;;;9.48;;
42754;SDS011;28407;51.830;5.684;2023-11-21T10:26:13;11.85;;;9.25;;
42754;SDS011;28407;51.830;5.684;2023-11-21T10:28:17;18.15;;;9.50;;
42754;SDS011;28407;51.830;5.684;2023-11-21T10:30:17;18.63;;;11.07;;
42754;SDS011;28407;51.830;5.684;2023-11-21T10:32:18;15.48;;;10.63;;
42754;SDS011;28407;51.830;5.684;2023-11-21T10:34:19;10.52;;;8.70;;
42754;SDS011;28407;51.830;5.684;2023-11-21T10:38:25;14.00;;;8.38;;
42754;SDS011;28407;51.830;5.684;2023-11-21T10:42:29;9.97;;;7.50;;
42754;SDS011;28407;51.830;5.684;2023-11-21T10:44:32;11.20;;;8.93;;
42754;SDS011;28407;51.830;5.684;2023-11-21T10:46:34;13.90;;;8.73;;
42754;SDS011;28407;51.830;5.684;2023-11-21T10:48:35;11.38;;;8.38;;
42754;SDS011;28407;51.830;5.684;2023-11-21T10:50:36;13.45;;;8.75;;
42754;SDS011;28407;51.830;5.684;2023-11-21T10:52:39;9.77;;;7.78;;
42754;SDS011;28407;51.830;5.684;2023-11-21T10:54:40;16.17;;;10.32;;
42754;SDS011;28407;51.830;5.684;2023-11-21T10:56:42;11.70;;;8.57;;
42754;SDS011;28407;51.830;5.684;2023-11-21T10:58:44;15.48;;;8.38;;
42754;SDS011;28407;51.830;5.684;2023-11-21T11:00:45;11.68;;;8.93;;
42754;SDS011;28407;51.830;5.684;2023-11-21T11:02:49;14.35;;;9.25;;
42754;SDS011;28407;51.830;5.684;2023-11-21T11:04:50;11.73;;;8.07;;
42754;SDS011;28407;51.830;5.684;2023-11-21T11:07:01;11.02;;;7.65;;
42754;SDS011;28407;51.830;5.684;2023-11-21T11:09:05;9.73;;;7.55;;
42754;SDS011;28407;51.830;5.684;2023-11-21T11:11:09;14.80;;;8.43;;
42754;SDS011;28407;51.830;5.684;2023-11-21T11:13:10;13.77;;;8.10;;
42754;SDS011;28407;51.830;5.684;2023-11-21T11:15:11;13.48;;;7.38;;
42754;SDS011;28407;51.830;5.684;2023-11-21T11:17:12;10.43;;;7.97;;
42754;SDS011;28407;51.830;5.684;2023-11-21T11:19:13;11.57;;;9.23;;
42754;SDS011;28407;51.830;5.684;2023-11-21T11:28:13;13.27;;;8.25;;
42754;SDS011;28407;51.830;5.684;2023-11-21T11:30:24;11.95;;;8.02;;
42754;SDS011;28407;51.830;5.684;2023-11-21T11:33:10;11.20;;;8.18;;
42754;SDS011;28407;51.830;5.684;2023-11-21T11:38:02;10.57;;;7.80;;
42754;SDS011;28407;51.830;5.684;2023-11-21T11:40:06;12.05;;;8.13;;
42754;SDS011;28407;51.830;5.684;2023-11-21T11:42:08;10.25;;;7.30;;
42754;SDS011;28407;51.830;5.684;2023-11-21T11:44:45;14.43;;;8.27;;
42754;SDS011;28407;51.830;5.684;2023-11-21T11:46:46;12.68;;;7.63;;
42754;SDS011;28407;51.830;5.684;2023-11-21T11:48:47;13.13;;;9.90;;
42754;SDS011;28407;51.830;5.684;2023-11-21T11:51:01;10.73;;;7.53;;
42754;SDS011;28407;51.830;5.684;2023-11-21T11:53:12;12.18;;;7.82;;
42754;SDS011;28407;51.830;5.684;2023-11-21T11:55:14;12.65;;;8.55;;
42754;SDS011;28407;51.830;5.684;2023-11-21T11:57:19;9.70;;;7.32;;
42754;SDS011;28407;51.830;5.684;2023-11-21T12:00:17;9.73;;;7.00;;
42754;SDS011;28407;51.830;5.684;2023-11-21T12:02:30;9.23;;;7.30;;
42754;SDS011;28407;51.830;5.684;2023-11-21T12:04:31;11.32;;;7.78;;
42754;SDS011;28407;51.830;5.684;2023-11-21T12:06:34;11.45;;;8.57;;
42754;SDS011;28407;51.830;5.684;2023-11-21T12:08:35;12.93;;;8.50;;
42754;SDS011;28407;51.830;5.684;2023-11-21T12:10:37;11.80;;;9.63;;
42754;SDS011;28407;51.830;5.684;2023-11-21T12:12:41;12.02;;;7.82;;
42754;SDS011;28407;51.830;5.684;2023-11-21T12:14:44;10.60;;;7.13;;
42754;SDS011;28407;51.830;5.684;2023-11-21T12:16:45;10.50;;;7.93;;
42754;SDS011;28407;51.830;5.684;2023-11-21T12:18:46;9.90;;;7.40;;
42754;SDS011;28407;51.830;5.684;2023-11-21T12:20:47;8.52;;;6.90;;
42754;SDS011;28407;51.830;5.684;2023-11-21T12:22:51;9.07;;;6.70;;
42754;SDS011;28407;51.830;5.684;2023-11-21T12:24:55;9.45;;;7.00;;
42754;SDS011;28407;51.830;5.684;2023-11-21T12:26:56;8.85;;;6.38;;
42754;SDS011;28407;51.830;5.684;2023-11-21T12:28:57;9.75;;;7.03;;
42754;SDS011;28407;51.830;5.684;2023-11-21T12:30:57;7.90;;;6.03;;